Time;durP1;ratioP1;P1;durP2;ratioP2;P2;SDS_P1;SDS_P2;PMS_P1;PMS_P2;Temp;Humidity;BMP_temperature;BMP_pressure;BME280_temperature;BME280_humidity;BME280_pressure;Samples;Min_cycle;Max_cycle;Signal;HPM_P1;HPM_P2
2021/01/26 00:01:31;;;;;;;;;0.75;0.00;19.50;62.00;;;18.47;47.00;100929.81;5025278;28;8820;-56
2021/01/26 00:03:58;;;;;;;;;0.00;0.00;19.70;61.80;;;18.49;46.56;100921.63;5031731;28;8967;-57
2021/01/26 00:06:24;;;;;;;;;1.00;0.00;19.80;61.10;;;18.50;46.60;100924.16;5030430;28;8818;-57
2021/01/26 00:08:51;;;;;;;;;0.00;0.00;19.70;61.00;;;18.48;46.63;100914.63;5015075;28;8805;-57
2021/01/26 00:11:18;;;;;;;;;0.00;0.00;19.80;61.20;;;18.47;46.58;100921.81;5027810;28;8808;-57
2021/01/26 00:13:45;;;;;;;;;1.25;0.00;19.60;61.40;;;18.45;46.74;100915.75;5022765;28;8847;-65
2021/01/26 00:16:12;;;;;;;;;0.00;0.00;19.40;61.50;;;18.46;46.95;100916.59;5017400;28;8865;-68
2021/01/26 00:18:38;;;;;;;;;0.00;0.00;19.50;61.90;;;18.43;47.33;100913.22;5019135;28;8864;-58
2021/01/26 00:21:05;;;;;;;;;0.25;0.00;19.60;62.00;;;18.43;47.52;100915.88;5030032;28;9535;-66
2021/01/26 00:23:32;;;;;;;;;0.00;0.00;19.50;62.60;;;18.43;47.68;100921.25;5024685;28;8804;-69
2021/01/26 00:25:59;;;;;;;;;0.00;0.00;19.60;62.40;;;18.46;47.60;100919.25;5022333;28;8872;-65
2021/01/26 00:28:26;;;;;;;;;0.00;0.00;19.60;62.20;;;18.44;47.22;100925.63;5022435;28;8809;-67
2021/01/26 00:30:53;;;;;;;;;0.00;0.00;19.70;62.10;;;18.48;47.17;100922.63;5018228;28;8796;-64
2021/01/26 00:33:23;;;;;;;;;0.00;0.00;19.60;62.70;;;18.51;46.98;100931.19;5018758;28;8806;-65
2021/01/26 00:35:51;;;;;;;;;0.00;0.00;19.50;61.40;;;18.50;46.34;100924.16;5021040;28;8882;-68
2021/01/26 00:38:19;;;;;;;;;0.75;0.00;19.70;60.90;;;18.49;45.71;100919.78;5026796;28;8822;-68
2021/01/26 00:40:46;;;;;;;;;0.25;0.00;19.50;59.90;;;18.50;45.38;100923.34;5027456;28;8801;-69
2021/01/26 00:43:15;;;;;;;;;0.00;0.00;19.60;59.60;;;18.47;44.96;100926.28;5018585;28;8796;-72
2021/01/26 00:45:42;;;;;;;;;0.00;0.00;19.60;59.50;;;18.47;44.76;100924.47;5015317;28;8829;-66
2021/01/26 00:48:09;;;;;;;;;0.00;0.00;19.60;59.30;;;18.45;45.62;100929.13;5015482;28;8855;-69
2021/01/26 00:50:38;;;;;;;;;0.00;0.00;19.50;60.60;;;18.50;45.46;100923.34;5023645;28;8991;-67
2021/01/26 00:53:05;;;;;;;;;0.50;0.00;19.80;60.20;;;18.53;45.08;100906.97;5025441;28;8852;-68
2021/01/26 00:55:31;;;;;;;;;0.00;0.00;19.70;59.70;;;18.50;44.26;100904.63;5012767;28;8840;-68
2021/01/26 00:57:58;;;;;;;;;2.00;0.00;19.70;58.90;;;18.51;43.66;100920.50;5026305;28;8889;-65
2021/01/26 01:00:32;;;;;;;;;0.25;0.00;19.70;58.80;;;18.51;44.90;100914.31;5024588;28;8794;-68
2021/01/26 01:02:59;;;;;;;;;0.00;0.00;19.70;58.50;;;18.51;45.54;100907.13;5004182;28;8798;-65
2021/01/26 01:05:26;;;;;;;;;0.00;0.00;19.60;60.00;;;18.57;45.33;100906.53;5020848;28;8794;-66
2021/01/26 01:07:53;;;;;;;;;0.00;0.00;19.80;60.00;;;18.61;45.69;100899.88;5021472;28;8800;-66
2021/01/26 01:10:29;;;;;;;;;0.00;0.00;20.00;60.20;;;18.60;45.80;100916.94;5021475;28;8800;-66
2021/01/26 01:12:56;;;;;;;;;0.75;0.00;19.80;60.10;;;18.60;46.16;100908.91;5021035;28;8768;-58
2021/01/26 01:15:24;;;;;;;;;0.00;0.00;19.80;60.50;;;18.58;46.00;100915.41;5020925;28;8792;-57
2021/01/26 01:17:52;;;;;;;;;0.00;0.00;19.80;60.60;;;18.59;45.72;100909.03;5028032;28;8794;-68
2021/01/26 01:20:23;;;;;;;;;0.00;0.00;19.60;60.30;;;18.61;45.97;100920.44;5025776;28;8964;-66
2021/01/26 01:22:51;;;;;;;;;0.00;0.00;19.80;60.80;;;18.64;45.73;100912.94;5031832;28;8796;-69
2021/01/26 01:25:19;;;;;;;;;0.00;0.00;19.80;60.40;;;18.69;46.13;100903.63;5030567;28;9531;-59
2021/01/26 01:27:46;;;;;;;;;1.25;0.50;19.90;60.30;;;18.70;45.70;100914.19;5031296;28;8898;-59
2021/01/26 01:30:18;;;;;;;;;0.00;0.00;19.80;60.00;;;18.68;46.20;100908.16;5033590;28;8895;-56
2021/01/26 01:32:45;;;;;;;;;1.00;0.50;19.90;60.50;;;18.69;46.79;100912.50;5031272;28;8901;-62
2021/01/26 01:35:14;;;;;;;;;0.75;0.00;19.90;61.40;;;18.68;46.50;100897.44;5024263;28;8796;-62
2021/01/26 01:37:41;;;;;;;;;0.00;0.00;19.90;61.30;;;18.70;46.95;100919.56;5020717;28;8796;-59
2021/01/26 01:40:13;;;;;;;;;0.00;0.00;19.80;61.70;;;18.73;47.52;100921.91;4996283;28;8837;-58
2021/01/26 01:42:40;;;;;;;;;0.00;0.00;19.90;62.10;;;18.77;46.66;100911.78;5026518;28;8798;-58
2021/01/26 01:45:08;;;;;;;;;0.00;0.00;20.00;61.20;;;18.77;46.13;100915.28;5034110;28;8800;-59
2021/01/26 01:47:56;;;;;;;;;0.00;0.00;20.10;60.60;;;18.78;46.28;100911.63;5030195;28;9553;-57
2021/01/26 01:50:39;;;;;;;;;0.00;0.00;20.00;60.70;;;18.78;46.43;100914.31;5031698;28;8787;-58
2021/01/26 01:53:19;;;;;;;;;0.00;0.00;19.90;60.90;;;18.79;46.56;100917.81;5017340;28;8782;-56
2021/01/26 01:56:09;;;;;;;;;0.00;0.00;20.20;62.70;;;18.79;46.44;100926.69;5024730;28;8790;-58
2021/01/26 01:58:45;;;;;;;;;1.00;1.00;19.90;61.80;;;18.79;47.20;100934.72;5019868;28;8891;-63
2021/01/26 02:01:19;;;;;;;;;1.50;1.50;19.90;62.20;;;18.79;47.54;100924.00;5020558;28;8909;-63
2021/01/26 02:03:52;;;;;;;;;0.00;0.00;20.00;62.50;;;18.82;47.41;100934.41;5018274;28;8764;-63
2021/01/26 02:06:23;;;;;;;;;1.25;1.25;19.90;62.40;;;18.88;46.81;100941.00;5027951;28;8776;-63
2021/01/26 02:09:13;;;;;;;;;0.00;0.00;20.00;61.40;;;18.93;46.73;100919.13;5008033;28;8812;-64
2021/01/26 02:11:40;;;;;;;;;1.00;0.00;20.30;61.00;;;19.00;46.48;100922.88;5025700;28;8789;-65
2021/01/26 02:14:07;;;;;;;;;0.00;0.00;20.50;60.40;;;19.08;46.09;100923.81;5030357;28;8809;-62
2021/01/26 02:17:03;;;;;;;;;1.00;1.00;20.60;60.00;;;19.16;45.86;100924.84;5032458;28;8782;-63
2021/01/26 02:20:07;;;;;;;;;0.00;0.00;20.70;59.60;;;19.23;45.79;100918.75;5013485;28;8826;-64
2021/01/26 02:23:34;;;;;;;;;0.00;0.00;21.00;59.40;;;19.23;45.64;100909.84;5024940;28;8825;-58
2021/01/26 02:27:05;;;;;;;;;0.00;0.00;20.90;59.30;;;19.22;45.57;100905.50;4996422;28;8867;-58
2021/01/26 02:30:14;;;;;;;;;0.00;0.00;20.90;59.30;;;19.25;45.25;100915.91;4971159;28;8934;-58
2021/01/26 02:33:31;;;;;;;;;0.00;0.00;20.60;59.30;;;19.28;45.27;100907.56;4968588;28;8927;-58
2021/01/26 02:36:09;;;;;;;;;0.00;0.00;20.70;59.30;;;19.29;45.33;100899.38;5027902;28;8802;-58
2021/01/26 02:38:54;;;;;;;;;0.00;0.00;20.60;59.10;;;19.27;45.11;100904.03;5029623;28;8896;-58
2021/01/26 02:42:17;;;;;;;;;0.00;0.00;20.90;59.20;;;19.27;44.99;100906.72;5029781;28;8817;-58
2021/01/26 02:44:53;;;;;;;;;0.00;0.00;20.50;59.20;;;19.27;45.38;100912.09;5024653;28;8891;-58
2021/01/26 02:48:06;;;;;;;;;0.00;0.00;20.60;60.40;;;19.30;45.42;100911.75;5024541;28;8818;-58
2021/01/26 02:51:20;;;;;;;;;0.00;0.00;20.60;59.70;;;19.29;45.28;100904.75;4962133;28;8851;-60
2021/01/26 02:54:34;;;;;;;;;0.00;0.00;20.70;59.50;;;19.29;45.41;100910.09;5024620;28;8794;-61
2021/01/26 02:57:27;;;;;;;;;0.00;0.00;20.60;59.60;;;19.28;45.63;100907.56;5005580;28;9531;-58
2021/01/26 03:00:21;;;;;;;;;0.00;0.00;20.60;60.10;;;19.26;45.58;100910.41;5012275;28;8793;-58
2021/01/26 03:03:03;;;;;;;;;0.00;0.00;20.40;60.50;;;19.29;45.86;100919.97;5010749;28;8808;-58
2021/01/26 03:06:15;;;;;;;;;0.00;0.00;20.60;61.10;;;19.30;46.09;100914.44;5023538;28;8767;-58
2021/01/26 03:08:59;;;;;;;;;0.00;0.00;20.60;60.20;;;19.29;45.65;100901.22;5015099;28;8826;-58
2021/01/26 03:11:57;;;;;;;;;0.00;0.00;20.60;60.00;;;19.30;45.81;100909.09;5027328;28;8936;-58
2021/01/26 03:14:47;;;;;;;;;1.00;0.60;20.60;60.30;;;19.27;45.54;100911.25;5008000;28;9571;-55
2021/01/26 03:17:35;;;;;;;;;0.00;0.00;20.40;60.50;;;19.25;45.57;100919.44;5012190;28;8806;-55
2021/01/26 03:20:25;;;;;;;;;0.00;0.00;20.30;60.40;;;19.23;45.76;100929.47;5011578;28;8808;-55
2021/01/26 03:23:01;;;;;;;;;0.00;0.00;20.10;60.60;;;19.20;45.80;100916.38;5009440;28;8794;-55
2021/01/26 03:25:30;;;;;;;;;0.00;0.00;20.30;61.00;;;19.17;45.74;100924.72;5016326;28;8980;-55
2021/01/26 03:28:01;;;;;;;;;0.00;0.00;20.30;60.70;;;19.16;45.85;100922.19;5025769;28;8841;-55
2021/01/26 03:30:43;;;;;;;;;0.00;0.00;20.40;60.80;;;19.14;45.80;100935.75;5003130;28;8822;-54
2021/01/26 03:33:29;;;;;;;;;0.00;0.00;20.40;60.80;;;19.12;45.71;100929.69;5013018;28;8806;-55
2021/01/26 03:35:57;;;;;;;;;0.60;0.60;20.30;60.80;;;19.09;45.94;100935.34;5000500;28;8777;-53
2021/01/26 03:38:30;;;;;;;;;0.00;0.00;20.40;60.70;;;19.08;45.97;100933.66;5029076;28;8813;-55
2021/01/26 03:41:01;;;;;;;;;0.00;0.00;20.30;60.80;;;19.07;45.80;100929.31;5032252;28;8897;-55
2021/01/26 03:43:29;;;;;;;;;0.40;0.00;20.30;60.90;;;19.05;45.80;100912.56;5012788;28;8810;-54
2021/01/26 03:46:40;;;;;;;;;0.50;0.00;20.20;60.90;;;19.03;45.95;100926.09;5026707;28;8817;-55
2021/01/26 03:49:16;;;;;;;;;0.00;0.00;20.20;61.00;;;19.01;46.11;100933.44;5013608;28;8844;-55
2021/01/26 03:51:55;;;;;;;;;0.00;0.00;20.20;61.30;;;19.00;45.98;100933.59;5024317;28;8814;-55
2021/01/26 03:54:43;;;;;;;;;0.00;0.00;20.00;60.80;;;18.95;45.97;100931.34;5019184;28;8963;-55
2021/01/26 03:57:50;;;;;;;;;1.00;1.00;20.00;61.10;;;18.99;46.06;100934.59;5022228;28;8810;-55
2021/01/26 04:00:52;;;;;;;;;0.00;0.00;20.00;61.10;;;18.98;46.28;100928.41;5018154;28;8801;-55
2021/01/26 04:03:34;;;;;;;;;0.00;0.00;20.10;60.80;;;18.99;46.03;100940.78;5014667;28;8812;-55
2021/01/26 04:06:14;;;;;;;;;0.00;0.00;20.20;61.00;;;18.95;46.16;100933.19;5023957;28;8839;-54
2021/01/26 04:08:55;;;;;;;;;0.00;0.00;19.90;61.10;;;18.93;45.93;100933.38;5014594;28;9497;-55
2021/01/26 04:11:35;;;;;;;;;0.00;0.00;20.20;61.00;;;18.94;46.21;100931.53;5002483;28;8804;-55
2021/01/26 04:14:40;;;;;;;;;0.00;0.00;20.20;61.10;;;18.89;46.20;100939.19;5034266;28;8786;-55
2021/01/26 04:17:27;;;;;;;;;0.00;0.00;20.00;61.00;;;18.87;46.43;100937.47;4989565;28;8830;-55
2021/01/26 04:20:29;;;;;;;;;0.00;0.00;20.00;61.10;;;18.92;45.85;100941.53;5011136;28;8826;-55
2021/01/26 04:22:59;;;;;;;;;0.00;0.00;20.10;60.60;;;18.92;46.04;100937.03;4998387;28;8846;-55
2021/01/26 04:25:42;;;;;;;;;0.00;0.00;20.00;60.50;;;18.91;46.24;100939.88;5007727;28;8943;-53
2021/01/26 04:28:38;;;;;;;;;0.00;0.00;20.20;60.90;;;18.90;45.83;100941.69;5008137;28;8849;-55
2021/01/26 04:31:07;;;;;;;;;0.00;0.00;19.90;61.00;;;18.87;46.07;100942.81;4996903;28;9507;-56
2021/01/26 04:33:35;;;;;;;;;0.00;0.00;20.10;61.10;;;18.85;46.29;100955.53;5022319;28;8786;-57
2021/01/26 04:36:04;;;;;;;;;0.00;0.00;20.00;61.10;;;18.85;46.23;100955.53;5027926;28;8818;-56
2021/01/26 04:38:31;;;;;;;;;0.00;0.00;20.10;61.10;;;18.83;46.37;100959.38;5029869;28;8863;-57
2021/01/26 04:41:32;;;;;;;;;0.00;0.00;19.90;61.20;;;18.84;46.08;100953.00;5024591;28;8816;-56
2021/01/26 04:44:32;;;;;;;;;0.00;0.00;19.90;61.20;;;18.85;46.07;100955.53;5022054;28;8794;-56
2021/01/26 04:47:11;;;;;;;;;0.00;0.00;20.00;60.60;;;18.84;46.11;100943.13;5028560;28;8878;-56
2021/01/26 04:50:02;;;;;;;;;0.00;0.00;20.20;60.80;;;18.82;46.15;100955.81;5005630;28;8923;-55
2021/01/26 04:53:07;;;;;;;;;0.00;0.00;20.00;61.10;;;18.82;45.86;100965.69;5017946;28;8792;-56
2021/01/26 04:56:00;;;;;;;;;0.00;0.00;19.90;60.80;;;18.80;45.91;100975.69;5021089;28;8798;-56
2021/01/26 04:58:38;;;;;;;;;0.00;0.00;19.70;60.90;;;18.83;46.05;100962.88;5010051;28;8783;-57
2021/01/26 05:01:37;;;;;;;;;0.00;0.00;20.00;60.70;;;18.84;45.92;100975.25;5031367;28;8787;-56
2021/01/26 05:04:10;;;;;;;;;0.00;0.00;19.90;60.20;;;18.83;46.01;100967.41;5008288;28;8853;-56
2021/01/26 05:07:11;;;;;;;;;0.00;0.00;20.00;60.50;;;18.82;46.12;100976.41;5023275;28;8838;-57
2021/01/26 05:09:53;;;;;;;;;0.00;0.00;19.90;60.60;;;18.79;46.04;100988.25;5015491;28;9004;-57
2021/01/26 05:12:24;;;;;;;;;0.00;0.00;20.10;60.80;;;18.79;46.39;100987.41;5007890;28;8845;-55
2021/01/26 05:14:59;;;;;;;;;0.00;0.00;19.90;61.10;;;18.82;46.03;100987.94;5011722;28;8812;-57
2021/01/26 05:17:45;;;;;;;;;0.00;0.00;19.90;60.60;;;18.83;45.79;100986.97;5007704;28;8886;-57
2021/01/26 05:20:40;;;;;;;;;0.00;0.00;19.90;60.20;;;18.82;46.12;100993.28;5006335;28;8784;-57
2021/01/26 05:23:22;;;;;;;;;0.00;0.00;20.00;60.30;;;18.81;45.93;100988.09;5027015;28;9535;-57
2021/01/26 05:25:50;;;;;;;;;0.00;0.00;20.00;60.70;;;18.78;45.91;100997.28;5020377;28;8877;-57
2021/01/26 05:28:20;;;;;;;;;0.00;0.00;19.90;60.80;;;18.77;45.93;101010.78;5025533;28;8832;-57
2021/01/26 05:30:57;;;;;;;;;0.00;0.00;19.80;60.90;;;18.78;46.15;101005.31;5008729;28;8765;-57
2021/01/26 05:33:24;;;;;;;;;0.00;0.00;19.90;60.90;;;18.79;46.01;101000.78;5021922;28;9554;-57
2021/01/26 05:35:58;;;;;;;;;2.00;0.00;20.00;60.50;;;18.79;46.04;101009.66;5015630;28;8789;-58
2021/01/26 05:38:25;;;;;;;;;0.00;0.00;19.80;60.50;;;18.81;45.67;101010.34;5020350;28;8801;-57
2021/01/26 05:41:00;;;;;;;;;0.00;0.00;19.80;60.40;;;18.81;46.06;101018.38;5024231;28;8792;-58
2021/01/26 05:43:33;;;;;;;;;0.00;0.00;20.10;60.70;;;18.80;45.85;101021.19;5001747;28;8793;-58
2021/01/26 05:46:08;;;;;;;;;0.00;0.00;19.80;60.50;;;18.82;46.00;101029.94;5015767;28;8811;-58
2021/01/26 05:48:51;;;;;;;;;0.00;0.00;19.80;60.80;;;18.87;45.56;101022.28;5014793;28;8880;-58
2021/01/26 05:51:26;;;;;;;;;0.00;0.00;20.20;60.30;;;18.86;45.25;101018.78;5022970;28;8924;-58
2021/01/26 05:54:08;;;;;;;;;0.00;0.00;20.10;59.80;;;18.86;45.38;101024.13;5008255;28;8762;-58
2021/01/26 05:56:35;;;;;;;;;0.00;0.00;20.10;59.80;;;18.84;45.44;101028.78;5023245;28;8804;-60
2021/01/26 05:59:30;;;;;;;;;0.00;0.00;19.80;59.90;;;18.85;45.31;101032.28;5023530;28;8892;-58
2021/01/26 06:02:20;;;;;;;;;0.00;0.00;19.90;60.20;;;18.87;45.98;101036.50;5016640;28;8798;-58
2021/01/26 06:04:47;;;;;;;;;0.00;0.00;19.90;60.50;;;18.90;45.56;101047.91;5024928;28;8786;-58
2021/01/26 06:07:23;;;;;;;;;0.00;0.00;20.10;60.10;;;18.94;45.34;101044.81;5039349;28;8830;-58
2021/01/26 06:09:51;;;;;;;;;0.00;0.00;20.20;59.70;;;18.93;45.68;101050.28;5027767;28;8766;-58
2021/01/26 06:12:27;;;;;;;;;0.00;0.00;20.20;59.70;;;18.92;45.72;101051.28;5022516;28;8837;-58
2021/01/26 06:14:59;;;;;;;;;0.00;0.00;20.20;60.00;;;18.92;45.82;101053.97;5032663;28;8852;-59
2021/01/26 06:17:33;;;;;;;;;0.00;0.00;20.10;60.10;;;18.89;45.78;101047.09;5031466;28;8915;-59
2021/01/26 06:20:18;;;;;;;;;0.00;0.00;20.10;60.40;;;18.89;45.82;101052.44;5032423;28;8834;-59
2021/01/26 06:22:46;;;;;;;;;0.00;0.00;19.80;60.40;;;18.93;45.70;101064.53;5023043;28;8902;-67
2021/01/26 06:25:30;;;;;;;;;0.00;0.00;20.00;60.50;;;18.95;45.86;101067.91;5019168;28;8809;-64
2021/01/26 06:28:10;;;;;;;;;0.80;0.00;19.90;60.50;;;18.97;45.86;101063.25;5009592;28;8943;-63
2021/01/26 06:30:46;;;;;;;;;0.00;0.00;20.00;60.70;;;19.00;45.73;101054.06;5024954;28;8804;-67
2021/01/26 06:33:44;;;;;;;;;0.00;0.00;19.80;60.30;;;18.99;45.89;101055.06;5027579;28;8802;-64
2021/01/26 06:36:37;;;;;;;;;0.00;0.00;20.00;60.60;;;18.99;45.53;101066.63;5023174;28;8833;-64
2021/01/26 06:39:34;;;;;;;;;0.25;0.00;20.00;60.60;;;19.01;45.33;101066.47;5004562;28;8816;-60
2021/01/26 06:42:33;;;;;;;;;1.00;0.00;20.00;60.70;;;19.03;45.30;101072.50;5028671;28;8793;-65
2021/01/26 06:45:23;;;;;;;;;1.00;1.00;19.90;60.50;;;19.05;45.24;101076.72;4946879;28;8928;-61
2021/01/26 06:48:06;;;;;;;;;0.00;0.00;20.20;60.70;;;19.05;45.39;101086.59;5026721;28;8802;-63
2021/01/26 06:50:59;;;;;;;;;0.00;0.00;20.00;61.00;;;19.05;45.24;101084.75;5015696;28;8880;-63
2021/01/26 06:53:50;;;;;;;;;0.00;0.00;20.10;60.60;;;19.04;45.13;101083.06;5027643;28;8821;-58
2021/01/26 06:56:50;;;;;;;;;3.00;0.80;20.10;60.50;;;19.07;45.53;101088.13;5030211;28;8814;-58
2021/01/26 06:59:31;;;;;;;;;0.00;0.00;20.00;60.80;;;19.06;45.43;101096.31;5024117;28;8812;-58
2021/01/26 07:02:22;;;;;;;;;0.00;0.00;20.00;60.90;;;19.04;45.43;101096.47;5019649;28;8798;-58
2021/01/26 07:04:57;;;;;;;;;0.00;0.00;20.10;60.90;;;19.06;45.28;101089.13;5017642;28;8911;-58
2021/01/26 07:08:05;;;;;;;;;0.00;0.00;20.00;60.80;;;19.05;45.20;101090.09;5024790;28;8838;-58
2021/01/26 07:11:36;;;;;;;;;1.00;0.00;20.00;60.40;;;19.04;45.27;101091.09;5029442;28;8821;-58
2021/01/26 07:14:33;;;;;;;;;0.00;0.00;20.00;60.70;;;19.08;45.03;101099.66;4998662;28;9504;-58
2021/01/26 07:17:06;;;;;;;;;0.00;0.00;19.80;60.30;;;19.05;45.13;101095.47;4974250;28;8911;-60
2021/01/26 07:19:53;;;;;;;;;0.00;0.00;20.10;60.40;;;19.08;45.12;101100.53;5015143;28;8816;-59
2021/01/26 07:22:45;;;;;;;;;0.00;0.00;20.00;60.60;;;19.07;45.04;101103.34;5024265;28;8883;-59
2021/01/26 07:25:45;;;;;;;;;1.00;1.00;19.90;60.70;;;19.08;45.33;101100.53;5023769;28;8902;-57
2021/01/26 07:29:06;;;;;;;;;0.00;0.00;19.90;61.00;;;19.07;45.43;101106.03;5018505;28;8851;-59
2021/01/26 07:32:00;;;;;;;;;0.00;0.00;19.90;61.10;;;19.07;45.31;101106.03;5016449;28;8870;-59
2021/01/26 07:34:51;;;;;;;;;0.00;0.00;19.90;61.40;;;19.06;45.51;101091.81;5007194;28;8822;-59
2021/01/26 07:37:28;;;;;;;;;0.00;0.00;19.70;61.10;;;19.06;45.52;101107.03;5017641;28;8809;-59
2021/01/26 07:40:22;;;;;;;;;0.00;0.00;19.70;61.20;;;19.06;45.45;101107.88;5013432;28;8836;-58
2021/01/26 07:43:15;;;;;;;;;1.00;0.00;19.80;61.30;;;19.05;45.66;101110.69;5007342;28;8792;-59
2021/01/26 07:46:01;;;;;;;;;0.00;0.00;20.00;61.40;;;19.06;45.49;101109.72;5015706;28;8915;-60
2021/01/26 07:48:45;;;;;;;;;3.00;3.00;19.80;61.30;;;19.03;45.78;101123.38;5024629;28;8853;-57
2021/01/26 07:51:22;;;;;;;;;0.75;0.00;20.00;61.50;;;19.02;45.95;101121.69;5011498;28;8826;-58
2021/01/26 07:54:33;;;;;;;;;0.00;0.00;20.00;61.50;;;18.99;46.01;101127.34;5010447;28;8845;-57
2021/01/26 07:57:04;;;;;;;;;1.00;1.00;20.00;61.30;;;18.97;46.02;101130.16;5023150;28;8845;-57
2021/01/26 07:59:40;;;;;;;;;0.00;0.00;20.00;61.30;;;18.96;45.91;101138.38;5030267;28;8834;-57
2021/01/26 08:02:27;;;;;;;;;0.00;0.00;20.00;61.20;;;18.92;46.41;101139.63;5016469;28;8803;-57
2021/01/26 08:04:55;;;;;;;;;1.00;0.00;20.00;61.30;;;18.90;46.50;101139.78;5016068;28;8800;-57
2021/01/26 08:07:31;;;;;;;;;0.00;0.00;19.90;61.30;;;18.85;46.24;101123.31;5008139;28;8799;-58
2021/01/26 08:10:03;;;;;;;;;0.00;0.00;19.80;61.20;;;18.87;46.58;101137.41;5030468;28;8812;-57
2021/01/26 08:12:29;;;;;;;;;0.00;0.00;20.00;61.10;;;18.83;46.59;101128.00;5020327;28;8796;-57
2021/01/26 08:15:31;;;;;;;;;0.00;0.00;20.00;60.90;;;18.79;46.79;101132.78;5020034;28;8808;-59
2021/01/26 08:17:59;;;;;;;;;0.00;0.00;19.90;61.50;;;18.77;46.74;101132.06;5029363;28;8810;-57
2021/01/26 08:20:33;;;;;;;;;0.00;0.00;19.70;61.90;;;18.76;46.86;101138.44;5017769;28;8797;-57
2021/01/26 08:23:12;;;;;;;;;0.00;0.00;19.70;62.10;;;18.74;47.15;101145.72;5014166;28;8790;-55
2021/01/26 08:25:43;;;;;;;;;0.00;0.00;19.50;62.20;;;18.72;47.11;101141.50;5027717;28;9603;-57
2021/01/26 08:28:41;;;;;;;;;0.00;0.00;19.60;62.40;;;18.71;47.02;101143.34;5014961;28;8848;-57
2021/01/26 08:31:38;;;;;;;;;0.00;0.00;19.50;62.30;;;18.69;47.02;101147.16;5018239;28;8798;-57
2021/01/26 08:34:23;;;;;;;;;0.00;0.00;19.70;62.50;;;18.68;47.18;101143.63;5000562;28;8796;-56
2021/01/26 08:37:11;;;;;;;;;0.00;0.00;19.60;62.50;;;18.66;47.30;101150.97;5026036;28;8818;-57
2021/01/26 08:39:44;;;;;;;;;0.00;0.00;19.60;62.60;;;18.66;47.19;101150.97;5018299;28;8872;-56
2021/01/26 08:42:41;;;;;;;;;0.00;0.00;19.30;62.40;;;18.62;47.14;101146.88;5028455;28;8942;-57
2021/01/26 08:45:25;;;;;;;;;0.00;0.00;19.60;62.60;;;18.61;47.36;101151.38;5022161;28;8937;-57
2021/01/26 08:47:55;;;;;;;;;0.00;0.00;19.70;62.60;;;18.61;47.38;101153.22;5020754;28;8798;-57
2021/01/26 08:51:11;;;;;;;;;0.00;0.00;19.50;62.50;;;18.59;47.40;101147.16;5010431;28;8813;-57
2021/01/26 08:53:39;;;;;;;;;0.00;0.00;19.50;62.80;;;18.58;47.51;101153.53;4951824;28;8834;-58
2021/01/26 08:56:25;;;;;;;;;0.00;0.00;19.50;62.20;;;18.56;47.27;101142.94;4949573;28;8785;-58
2021/01/26 08:58:57;;;;;;;;;0.00;0.00;19.50;62.60;;;18.57;47.33;101150.00;4999084;28;8825;-58
2021/01/26 09:01:24;;;;;;;;;0.25;0.25;19.70;62.20;;;18.54;46.88;101150.28;5008262;28;8800;-59
2021/01/26 09:03:52;;;;;;;;;0.00;0.00;19.60;61.80;;;18.57;46.83;101151.81;5017189;28;8826;-58
2021/01/26 09:06:42;;;;;;;;;0.00;0.00;19.60;61.80;;;18.55;46.82;101151.16;5032673;28;8798;-58
2021/01/26 09:09:30;;;;;;;;;0.00;0.00;19.50;62.10;;;18.53;47.00;101147.75;5032515;28;8960;-58
2021/01/26 09:12:05;;;;;;;;;0.50;0.50;19.40;62.20;;;18.51;46.97;101144.38;5000411;28;8813;-58
2021/01/26 09:14:50;;;;;;;;;1.00;0.00;19.40;62.00;;;18.50;47.19;101148.06;5014721;28;8821;-58
2021/01/26 09:17:35;;;;;;;;;0.00;0.00;19.60;62.30;;;18.47;47.11;101146.50;5016993;28;8781;-58
2021/01/26 09:20:23;;;;;;;;;0.00;0.00;19.30;62.20;;;18.47;47.43;101156.34;5018782;28;8788;-58
2021/01/26 09:22:58;;;;;;;;;0.00;0.00;19.50;62.40;;;18.43;47.52;101147.78;5029811;28;8785;-58
2021/01/26 09:25:43;;;;;;;;;0.25;0.00;19.40;62.30;;;18.41;47.51;101155.94;5018229;28;8850;-57
2021/01/26 09:28:17;;;;;;;;;0.00;0.00;19.60;62.60;;;18.39;47.42;101149.03;5024688;28;9721;-58
2021/01/26 09:30:47;;;;;;;;;0.50;0.50;19.50;63.10;;;18.37;47.55;101153.72;5026966;28;8816;-57
2021/01/26 09:33:18;;;;;;;;;0.00;0.00;19.40;62.60;;;18.36;47.69;101154.69;5018741;28;8777;-57
2021/01/26 09:36:10;;;;;;;;;0.00;0.00;19.40;62.60;;;18.34;47.51;101164.66;5029514;28;8782;-57
2021/01/26 09:38:50;;;;;;;;;0.00;0.00;19.30;62.60;;;18.33;47.66;101161.16;5016701;28;8871;-57
2021/01/26 09:41:30;;;;;;;;;0.00;0.00;19.20;62.60;;;18.30;47.73;101164.13;5034906;28;8778;-57
2021/01/26 09:44:09;;;;;;;;;0.00;0.00;19.20;62.70;;;18.30;47.82;101168.63;5028301;28;8781;-57
2021/01/26 09:46:42;;;;;;;;;0.00;0.00;19.30;62.80;;;18.26;47.91;101167.22;5026903;28;9590;-57
2021/01/26 09:49:18;;;;;;;;;0.00;0.00;19.20;62.70;;;18.26;47.70;101168.06;5033127;28;8911;-57
2021/01/26 09:52:08;;;;;;;;;0.00;0.00;19.20;62.80;;;18.23;48.06;101163.84;5023959;28;8778;-57
2021/01/26 09:54:39;;;;;;;;;0.00;0.00;19.30;62.90;;;18.22;47.74;101174.69;5024085;28;8804;-57
2021/01/26 09:57:13;;;;;;;;;1.00;0.00;19.10;62.90;;;18.19;47.74;101178.50;5023852;28;8780;-57
2021/01/26 09:59:40;;;;;;;;;0.00;0.00;19.10;62.80;;;18.18;47.70;101181.28;5017939;28;8813;-57
2021/01/26 10:02:15;;;;;;;;;0.00;0.00;19.20;62.90;;;18.15;48.08;101182.41;5011714;28;8818;-57
2021/01/26 10:04:44;;;;;;;;;0.00;0.00;19.20;63.00;;;18.14;48.07;101179.88;5016532;28;8876;-57
2021/01/26 10:07:18;;;;;;;;;0.00;0.00;19.20;63.00;;;18.12;47.83;101176.53;5007970;28;9549;-57
2021/01/26 10:09:45;;;;;;;;;0.00;0.00;19.20;63.00;;;18.13;47.89;101178.19;5024026;28;8793;-57
2021/01/26 10:12:34;;;;;;;;;0.00;0.00;19.30;63.10;;;18.11;47.93;101188.19;5012506;28;9534;-57
2021/01/26 10:15:34;;;;;;;;;0.00;0.00;19.10;63.00;;;18.08;47.94;101189.31;5040191;28;8798;-57
2021/01/26 10:18:12;;;;;;;;;0.00;0.00;19.10;63.00;;;18.06;47.97;101177.06;5019933;28;9592;-58
2021/01/26 10:21:06;;;;;;;;;0.00;0.00;19.00;63.10;;;18.05;48.06;101181.56;5010551;28;8804;-57
2021/01/26 10:23:42;;;;;;;;;0.00;0.00;19.20;63.10;;;18.03;48.16;101188.03;5024171;28;8800;-57
2021/01/26 10:26:24;;;;;;;;;0.00;0.00;18.90;62.90;;;18.01;47.99;101193.53;5011660;28;8932;-57
2021/01/26 10:29:03;;;;;;;;;0.00;0.00;19.00;63.00;;;18.00;47.90;101186.50;5036645;28;8814;-57
2021/01/26 10:31:57;;;;;;;;;0.00;0.00;19.20;63.10;;;17.98;48.01;101185.78;5033404;28;8952;-57
2021/01/26 10:34:34;;;;;;;;;0.00;0.00;19.20;63.10;;;17.98;48.16;101186.63;5035212;28;8868;-57
2021/01/26 10:37:23;;;;;;;;;0.00;0.00;18.80;62.90;;;17.96;47.94;101190.41;5020673;28;8784;-57
2021/01/26 10:40:16;;;;;;;;;0.00;0.00;18.80;62.90;;;17.93;48.08;101194.22;5026347;28;9525;-57
2021/01/26 10:43:02;;;;;;;;;0.00;0.00;19.00;63.10;;;17.91;48.01;101184.66;5037461;28;8795;-57
2021/01/26 10:45:48;;;;;;;;;0.00;0.00;18.90;63.10;;;17.90;48.01;101191.81;5032967;28;8824;-57
2021/01/26 10:48:37;;;;;;;;;0.00;0.00;18.80;63.00;;;17.87;48.03;101186.75;5018646;28;9782;-57
2021/01/26 10:51:25;;;;;;;;;0.50;0.00;18.90;63.00;;;17.88;48.07;101190.28;5012815;28;8812;-58
2021/01/26 10:53:52;;;;;;;;;0.00;0.00;18.90;63.00;;;17.84;48.28;101183.53;5034407;28;8790;-57
2021/01/26 10:56:19;;;;;;;;;0.00;0.00;18.80;63.20;;;17.84;48.19;101188.88;5029116;28;8851;-57
2021/01/26 10:58:48;;;;;;;;;0.00;0.00;18.80;63.20;;;17.82;48.23;101186.34;5029519;28;9019;-57
2021/01/26 11:01:20;;;;;;;;;0.00;0.00;18.80;63.30;;;17.83;48.04;101187.19;5037241;28;8814;-56
2021/01/26 11:03:49;;;;;;;;;0.00;0.00;18.80;63.20;;;17.81;48.38;101176.66;5036281;28;8779;-57
2021/01/26 11:06:17;;;;;;;;;0.00;0.00;18.60;63.10;;;17.78;48.40;101188.41;5019748;28;8800;-57
2021/01/26 11:08:47;;;;;;;;;0.00;0.00;18.80;63.20;;;17.77;48.31;101194.72;5032470;28;8826;-57
2021/01/26 11:11:25;;;;;;;;;0.00;0.00;18.90;63.30;;;17.77;48.33;101193.91;5034848;28;8798;-57
2021/01/26 11:13:53;;;;;;;;;0.00;0.00;18.80;63.20;;;17.74;48.24;101186.16;5019464;28;8809;-57
2021/01/26 11:16:21;;;;;;;;;0.00;0.00;18.70;63.10;;;17.74;48.45;101195.00;5034678;28;8824;-57
2021/01/26 11:18:48;;;;;;;;;0.00;0.00;18.70;63.20;;;17.71;48.27;101194.47;5034922;28;8947;-57